Time;durP1;ratioP1;P1;durP2;ratioP2;P2;SDS_P1;SDS_P2;PMS_P1;PMS_P2;Temp;Humidity;BMP_temperature;BMP_pressure;BME280_temperature;BME280_humidity;BME280_pressure;Samples;Min_cycle;Max_cycle;Signal;HPM_P1;HPM_P2
2024/02/06 04:07:38;;;;;;;1.50;1.20;;;6.80;99.90;;;;;;4864735;29;20062;-81
2024/02/06 04:10:05;;;;;;;0.68;0.68;;;6.80;99.90;;;;;;4858471;29;20368;-81
2024/02/06 04:12:32;;;;;;;2.25;1.23;;;6.80;99.90;;;;;;4862573;29;20037;-81
2024/02/06 04:14:59;;;;;;;1.25;0.93;;;6.80;99.90;;;;;;4859364;29;20044;-81
2024/02/06 04:17:25;;;;;;;1.23;1.15;;;6.70;1.00;;;;;;4858742;29;20030;-81
2024/02/06 04:19:51;;;;;;;0.95;0.80;;;6.80;1.00;;;;;;4859242;29;20042;-81
2024/02/06 04:22:17;;;;;;;1.88;1.77;;;6.80;1.00;;;;;;4873702;29;20112;-80
2024/02/06 04:24:43;;;;;;;13.43;2.85;;;6.80;1.00;;;;;;4859128;29;20033;-84
2024/02/06 04:27:09;;;;;;;2.00;1.25;;;6.80;1.00;;;;;;4859520;29;20033;-83
2024/02/06 04:29:36;;;;;;;2.65;2.28;;;6.80;1.00;;;;;;4855232;29;20050;-81
2024/02/06 04:32:03;;;;;;;1.75;1.15;;;6.80;1.00;;;;;;4859353;29;20029;-81
2024/02/06 04:34:29;;;;;;;0.75;0.75;;;6.80;1.00;;;;;;4872535;29;20509;-84
2024/02/06 04:36:55;;;;;;;0.32;0.32;;;6.80;1.00;;;;;;4873437;29;20053;-83
2024/02/06 04:39:22;;;;;;;4.90;1.30;;;6.80;1.00;;;;;;4873707;29;20052;-81
2024/02/06 04:41:48;;;;;;;1.85;1.40;;;6.80;1.00;;;;;;4859148;29;20041;-82
2024/02/06 04:44:14;;;;;;;1.92;1.08;;;6.80;1.00;;;;;;4860738;29;20034;-82
2024/02/06 04:46:41;;;;;;;12.45;2.00;;;6.80;1.00;;;;;;4862496;29;20040;-81
2024/02/06 04:49:07;;;;;;;1.00;0.98;;;6.70;1.00;;;;;;4859401;29;20048;-81
2024/02/06 04:51:33;;;;;;;2.50;1.27;;;6.70;1.00;;;;;;4854358;29;20041;-83
2024/02/06 04:53:59;;;;;;;0.70;0.70;;;6.70;1.00;;;;;;4873367;29;20048;-83
2024/02/06 04:56:25;;;;;;;0.65;0.65;;;6.70;1.00;;;;;;4858764;29;20038;-81
2024/02/06 04:58:52;;;;;;;0.68;0.68;;;6.70;1.00;;;;;;4859858;29;20030;-81
2024/02/06 05:01:18;;;;;;;0.85;0.85;;;6.70;1.00;;;;;;4873741;29;20037;-81
2024/02/06 05:03:44;;;;;;;1.27;1.10;;;6.70;1.00;;;;;;4858961;29;20048;-81
2024/02/06 05:06:11;;;;;;;0.75;0.75;;;6.60;1.00;;;;;;4859196;29;20435;-81
2024/02/06 05:08:38;;;;;;;0.70;0.70;;;6.60;1.00;;;;;;4858925;29;20048;-79
2024/02/06 05:11:08;;;;;;;2.35;1.65;;;6.60;1.00;;;;;;4856162;29;20033;-87
2024/02/06 05:13:34;;;;;;;0.90;0.90;;;6.60;1.00;;;;;;4857546;29;20049;-80
2024/02/06 05:16:00;;;;;;;0.73;0.73;;;6.60;1.00;;;;;;4859656;29;20033;-80
2024/02/06 05:18:26;;;;;;;1.50;1.40;;;6.60;1.00;;;;;;4858872;29;20049;-83
2024/02/06 05:20:58;;;;;;;1.00;0.88;;;6.50;1.00;;;;;;4862718;29;20033;-86
2024/02/06 05:23:24;;;;;;;2.60;1.95;;;6.50;1.00;;;;;;4860691;29;20065;-81
2024/02/06 05:25:50;;;;;;;9.90;1.05;;;6.50;1.00;;;;;;4865557;29;20045;-85
2024/02/06 05:28:16;;;;;;;0.38;0.38;;;6.50;1.00;;;;;;4860812;29;20048;-86
2024/02/06 05:30:42;;;;;;;1.98;1.80;;;6.50;1.00;;;;;;4858549;29;20044;-86
2024/02/06 05:33:08;;;;;;;9.30;1.30;;;6.50;1.00;;;;;;4857993;29;20038;-86
2024/02/06 05:35:35;;;;;;;0.40;0.40;;;6.40;1.00;;;;;;4855614;29;20033;-85
2024/02/06 05:38:01;;;;;;;0.77;0.65;;;6.40;1.00;;;;;;4857750;29;20048;-82
2024/02/06 05:40:29;;;;;;;1.17;1.08;;;6.40;1.00;;;;;;4867427;29;20026;-81
2024/02/06 05:42:55;;;;;;;0.43;0.43;;;6.40;1.00;;;;;;4861792;29;20042;-83
2024/02/06 05:45:22;;;;;;;0.43;0.43;;;6.40;1.00;;;;;;4862909;29;20045;-82
2024/02/06 05:47:48;;;;;;;2.50;2.30;;;6.40;1.90;;;;;;4862671;29;20029;-83
2024/02/06 05:50:14;;;;;;;1.35;1.20;;;6.40;2.00;;;;;;4860796;29;20040;-83
2024/02/06 05:52:40;;;;;;;1.00;0.98;;;6.40;5.70;;;;;;4860774;29;20033;-83
2024/02/06 05:55:07;;;;;;;4.95;2.17;;;6.30;13.50;;;;;;4861872;29;20041;-84
2024/02/06 05:57:34;;;;;;;1.10;0.50;;;6.30;17.50;;;;;;4863924;29;20033;-81
2024/02/06 06:00:06;;;;;;;2.00;1.48;;;6.30;12.40;;;;;;4863093;29;20466;-84
2024/02/06 06:02:32;;;;;;;0.90;0.73;;;6.30;17.00;;;;;;4860131;29;20042;-83
2024/02/06 06:04:59;;;;;;;4.68;2.15;;;6.40;20.80;;;;;;4860327;29;20499;-83
2024/02/06 06:07:25;;;;;;;1.38;1.10;;;6.30;27.80;;;;;;4861597;29;20065;-82
2024/02/06 06:09:52;;;;;;;0.10;0.10;;;6.30;25.20;;;;;;4845025;29;20475;-82
2024/02/06 06:12:18;;;;;;;1.55;1.45;;;6.30;30.30;;;;;;4862127;29;20034;-82
2024/02/06 06:14:44;;;;;;;6.75;2.78;;;6.30;34.80;;;;;;4861349;29;20498;-83
2024/02/06 06:17:10;;;;;;;0.95;0.75;;;6.30;39.50;;;;;;4861547;29;20033;-83
2024/02/06 06:19:36;;;;;;;0.52;0.52;;;6.30;48.90;;;;;;4862698;29;20033;-84
2024/02/06 06:22:06;;;;;;;1.42;1.33;;;6.30;53.60;;;;;;4861450;29;20037;-84
2024/02/06 06:24:33;;;;;;;0.90;0.85;;;6.30;61.10;;;;;;4860925;29;20045;-83
2024/02/06 06:26:59;;;;;;;0.88;0.88;;;6.30;67.60;;;;;;4862875;29;20049;-83
2024/02/06 06:29:26;;;;;;;0.52;0.52;;;6.30;80.50;;;;;;4860239;29;20033;-84
2024/02/06 06:31:52;;;;;;;7.55;2.00;;;6.20;79.40;;;;;;4860842;29;20037;-82
2024/02/06 06:34:18;;;;;;;1.40;1.27;;;6.30;79.50;;;;;;4861384;29;20379;-84
2024/02/06 06:36:44;;;;;;;0.52;0.52;;;6.20;83.90;;;;;;4860202;29;20046;-85
2024/02/06 06:39:11;;;;;;;1.65;1.45;;;6.20;91.70;;;;;;4855697;29;20033;-83
2024/02/06 06:41:37;;;;;;;5.55;2.75;;;6.20;98.90;;;;;;4858090;29;20041;-81
2024/02/06 06:44:04;;;;;;;3.20;2.17;;;6.20;99.90;;;;;;4860914;29;20048;-82
2024/02/06 06:46:30;;;;;;;9.95;3.22;;;6.20;99.90;;;;;;4860848;29;20034;-80
2024/02/06 06:48:56;;;;;;;2.10;1.92;;;6.20;99.90;;;;;;4860961;29;20041;-83
2024/02/06 06:51:22;;;;;;;22.15;7.32;;;6.20;99.90;;;;;;4861388;29;20368;-83
2024/02/06 06:53:48;;;;;;;2.17;2.03;;;6.20;99.90;;;;;;4860662;29;20044;-81
2024/02/06 06:56:16;;;;;;;17.58;9.15;;;6.20;99.90;;;;;;4860760;29;20045;-82
2024/02/06 06:58:42;;;;;;;6.10;5.55;;;6.20;99.90;;;;;;4868882;29;20025;-82
2024/02/06 07:01:08;;;;;;;1.50;1.30;;;6.20;99.90;;;;;;4858567;29;20046;-82
2024/02/06 07:03:35;;;;;;;2.20;2.05;;;6.20;97.70;;;;;;4859233;29;20049;-81
2024/02/06 07:06:01;;;;;;;3.40;3.13;;;6.20;89.60;;;;;;4865423;29;20056;-80
2024/02/06 07:08:27;;;;;;;1.40;1.30;;;6.20;80.60;;;;;;4860708;29;20033;-81
2024/02/06 07:10:54;;;;;;;0.40;0.40;;;6.20;69.80;;;;;;4859841;29;20464;-82
2024/02/06 07:13:20;;;;;;;3.03;2.45;;;6.20;49.00;;;;;;4859559;29;20052;-80
2024/02/06 07:15:46;;;;;;;3.95;1.83;;;6.20;41.00;;;;;;4857977;29;20064;-82
2024/02/06 07:18:12;;;;;;;17.92;2.38;;;6.30;46.40;;;;;;4857565;29;20038;-79
2024/02/06 07:20:38;;;;;;;1.23;1.17;;;6.30;33.40;;;;;;4858191;29;20041;-80
2024/02/06 07:23:04;;;;;;;0.70;0.70;;;6.30;25.90;;;;;;4860229;29;20380;-80
2024/02/06 07:25:30;;;;;;;1.52;1.42;;;6.30;19.60;;;;;;4860282;29;20390;-80
2024/02/06 07:27:57;;;;;;;2.45;2.20;;;6.30;4.60;;;;;;4859769;29;20045;-78
2024/02/06 07:30:23;;;;;;;4.40;3.00;;;6.30;1.00;;;;;;4855928;29;20360;-78
2024/02/06 07:32:49;;;;;;;4.20;2.45;;;6.40;1.00;;;;;;4857775;29;20390;-78
2024/02/06 07:35:15;;;;;;;2.15;1.40;;;6.40;1.00;;;;;;4859618;29;20038;-78
2024/02/06 07:37:41;;;;;;;1.13;1.13;;;6.40;1.00;;;;;;4859289;29;20048;-78
2024/02/06 07:40:08;;;;;;;2.90;1.67;;;6.40;1.00;;;;;;4843243;29;20049;-78
2024/02/06 07:42:34;;;;;;;1.05;1.05;;;6.40;1.00;;;;;;4858953;29;20463;-78
2024/02/06 07:45:00;;;;;;;0.52;0.52;;;6.50;1.00;;;;;;4843975;29;20510;-77
2024/02/06 07:47:27;;;;;;;4.05;2.30;;;6.50;1.00;;;;;;4859681;29;20044;-77
2024/02/06 07:49:53;;;;;;;0.45;0.45;;;6.50;1.00;;;;;;4858833;29;20214;-77
2024/02/06 07:52:19;;;;;;;3.17;1.08;;;6.50;1.00;;;;;;4859557;29;20037;-77
2024/02/06 07:54:45;;;;;;;1.05;1.00;;;6.50;1.00;;;;;;4859588;29;20038;-78
2024/02/06 07:57:12;;;;;;;0.70;0.52;;;6.50;1.00;;;;;;4859570;29;20042;-78
2024/02/06 07:59:38;;;;;;;1.45;1.05;;;6.60;1.00;;;;;;4860762;29;20414;-77
2024/02/06 08:02:05;;;;;;;1.25;0.63;;;6.60;1.00;;;;;;4861165;29;20029;-78
2024/02/06 08:04:31;;;;;;;0.10;0.10;;;6.60;1.00;;;;;;4859659;29;20076;-78
2024/02/06 08:06:57;;;;;;;0.30;0.30;;;6.60;1.00;;;;;;4858649;29;20489;-78
2024/02/06 08:09:26;;;;;;;0.68;0.68;;;6.60;1.00;;;;;;4858955;29;20034;-77
2024/02/06 08:11:52;;;;;;;1.08;1.00;;;6.60;1.00;;;;;;4858987;29;20030;-77
2024/02/06 08:14:19;;;;;;;0.50;0.50;;;6.60;1.00;;;;;;4859414;29;20040;-77
2024/02/06 08:16:46;;;;;;;0.85;0.85;;;6.60;1.00;;;;;;4842058;29;20053;-77
2024/02/06 08:19:13;;;;;;;0.25;0.25;;;6.60;1.00;;;;;;4859672;29;20050;-78
2024/02/06 08:21:40;;;;;;;1.42;1.02;;;6.60;1.00;;;;;;4859533;29;20041;-77
2024/02/06 08:24:06;;;;;;;0.47;0.47;;;6.60;1.00;;;;;;4859358;29;20053;-78
2024/02/06 08:26:32;;;;;;;0.45;0.45;;;6.60;1.00;;;;;;4861036;29;20044;-78
2024/02/06 08:29:00;;;;;;;3.35;2.15;;;6.60;1.00;;;;;;4858990;29;20037;-78
2024/02/06 08:31:26;;;;;;;0.43;0.43;;;6.60;1.00;;;;;;4842664;29;20045;-79
2024/02/06 08:33:52;;;;;;;0.90;0.90;;;6.60;1.00;;;;;;4859249;29;20053;-80
2024/02/06 08:36:18;;;;;;;1.10;1.00;;;6.60;1.00;;;;;;4858938;29;20038;-80
2024/02/06 08:38:44;;;;;;;2.15;1.67;;;6.60;1.00;;;;;;4840984;29;20049;-79
2024/02/06 08:41:11;;;;;;;1.05;0.68;;;6.70;1.00;;;;;;4836153;29;20053;-79
2024/02/06 08:43:37;;;;;;;0.52;0.52;;;6.60;1.00;;;;;;4858641;29;20045;-79
2024/02/06 08:46:05;;;;;;;0.63;0.63;;;6.70;1.00;;;;;;4859538;29;20045;-80
2024/02/06 08:48:31;;;;;;;0.20;0.20;;;6.70;1.00;;;;;;4854954;29;20464;-79
2024/02/06 08:50:59;;;;;;;0.40;0.40;;;6.70;1.00;;;;;;4858786;29;20022;-79
2024/02/06 08:53:25;;;;;;;1.65;1.10;;;6.70;1.00;;;;;;4859077;29;20037;-79
2024/02/06 08:55:52;;;;;;;0.57;0.47;;;6.70;1.00;;;;;;4858473;29;20064;-78
2024/02/06 08:58:19;;;;;;;0.45;0.45;;;6.70;1.00;;;;;;4859179;29;20048;-80
2024/02/06 09:00:45;;;;;;;3.33;1.35;;;6.70;1.00;;;;;;4858227;29;20038;-78
2024/02/06 09:03:11;;;;;;;0.40;0.40;;;6.70;1.00;;;;;;4857703;29;20044;-80
2024/02/06 09:05:37;;;;;;;0.68;0.68;;;6.80;1.00;;;;;;4858535;29;20038;-77
2024/02/06 09:08:04;;;;;;;0.60;0.60;;;6.80;1.00;;;;;;4860614;29;20474;-81
2024/02/06 09:10:30;;;;;;;2.53;2.33;;;6.80;1.00;;;;;;4859898;29;20045;-78
2024/02/06 09:12:56;;;;;;;1.88;1.73;;;6.80;1.00;;;;;;4859056;29;20384;-79
2024/02/06 09:15:22;;;;;;;5.70;4.25;;;6.80;1.00;;;;;;4859118;29;20034;-79
2024/02/06 09:17:49;;;;;;;14.88;13.18;;;6.90;1.00;;;;;;4857761;29;20041;-81
2024/02/06 09:20:15;;;;;;;16.70;10.88;;;6.90;1.00;;;;;;4861314;29;20034;-81
2024/02/06 09:22:41;;;;;;;8.93;6.45;;;6.90;1.00;;;;;;4860945;29;20037;-80
2024/02/06 09:25:08;;;;;;;1.67;1.58;;;6.90;1.00;;;;;;4862002;29;20411;-80
2024/02/06 09:27:34;;;;;;;0.88;0.57;;;7.00;99.90;;;;;;4860699;29;20045;-80
2024/02/06 09:30:00;;;;;;;0.60;0.60;;;7.00;99.90;;;;;;4862060;29;20060;-80
2024/02/06 09:32:28;;;;;;;1.95;0.93;;;7.00;99.90;;;;;;4863667;29;20096;-79
2024/02/06 09:34:55;;;;;;;1.92;0.45;;;7.10;99.90;;;;;;4860299;29;20057;-78
2024/02/06 09:37:21;;;;;;;0.25;0.25;;;7.10;99.90;;;;;;4862159;29;20049;-79
2024/02/06 09:39:47;;;;;;;0.70;0.60;;;7.20;99.90;;;;;;4861380;29;20044;-79
2024/02/06 09:42:14;;;;;;;1.83;1.73;;;7.20;99.90;;;;;;4860960;29;20041;-79
2024/02/06 09:44:44;;;;;;;9.98;6.63;;;7.20;99.90;;;;;;4861369;29;20050;-78
2024/02/06 09:47:10;;;;;;;6.90;5.18;;;7.30;99.90;;;;;;4861970;29;20026;-78
2024/02/06 09:49:37;;;;;;;3.17;2.90;;;7.30;99.90;;;;;;4862061;29;20041;-76
2024/02/06 09:52:05;;;;;;;1.48;1.38;;;7.30;99.90;;;;;;4860695;29;20044;-77
2024/02/06 09:54:32;;;;;;;2.25;1.40;;;7.40;99.90;;;;;;4860380;29;20045;-76
2024/02/06 09:56:59;;;;;;;0.30;0.30;;;7.50;99.90;;;;;;4861182;29;20033;-77
2024/02/06 09:59:30;;;;;;;0.30;0.30;;;7.50;99.90;;;;;;4861928;29;20038;-78
2024/02/06 10:01:57;;;;;;;0.38;0.38;;;7.50;99.90;;;;;;4860053;29;20049;-79
2024/02/06 10:04:28;;;;;;;1.08;1.08;;;7.60;99.90;;;;;;4861103;29;20482;-78
2024/02/06 10:06:54;;;;;;;0.65;0.63;;;7.60;99.90;;;;;;4860417;29;20372;-80
2024/02/06 10:09:23;;;;;;;1.85;1.08;;;7.60;99.90;;;;;;4861527;29;20064;-79
2024/02/06 10:11:49;;;;;;;0.52;0.52;;;7.60;99.90;;;;;;4861614;29;20044;-79
2024/02/06 10:14:16;;;;;;;0.38;0.38;;;7.60;99.90;;;;;;4861820;29;20049;-80
2024/02/06 10:16:42;;;;;;;3.08;2.15;;;7.60;99.90;;;;;;4859771;29;20037;-80
2024/02/06 10:19:09;;;;;;;0.63;0.63;;;7.70;99.90;;;;;;4860958;29;20386;-80
2024/02/06 10:21:35;;;;;;;0.40;0.40;;;7.70;99.90;;;;;;4860183;29;20050;-79
2024/02/06 10:24:04;;;;;;;0.82;0.82;;;7.70;99.90;;;;;;4860347;29;20052;-80
2024/02/06 10:26:32;;;;;;;0.20;0.20;;;7.70;99.90;;;;;;4861010;29;20049;-80
2024/02/06 10:29:11;;;;;;;0.50;0.50;;;7.80;99.90;;;;;;4858565;29;20045;-79
2024/02/06 10:31:37;;;;;;;0.45;0.45;;;7.80;99.90;;;;;;4858999;29;20052;-79
2024/02/06 10:34:14;;;;;;;0.63;0.57;;;7.90;99.90;;;;;;4860912;29;20053;-80
2024/02/06 10:36:40;;;;;;;0.20;0.20;;;7.90;99.90;;;;;;4861620;29;20045;-80
2024/02/06 10:39:10;;;;;;;0.77;0.65;;;8.00;99.90;;;;;;4860954;29;20471;-79
2024/02/06 10:41:36;;;;;;;1.23;0.75;;;8.10;99.90;;;;;;4860484;29;20054;-79
2024/02/06 10:44:11;;;;;;;0.20;0.20;;;8.10;99.90;;;;;;4860929;29;20297;-80
2024/02/06 10:46:42;;;;;;;1.73;0.55;;;8.20;99.90;;;;;;4861388;29;20041;-79
2024/02/06 10:49:09;;;;;;;10.27;2.65;;;8.30;99.90;;;;;;4861393;29;20498;-79
2024/02/06 10:51:35;;;;;;;0.20;0.20;;;8.40;99.90;;;;;;4861547;29;20041;-79
2024/02/06 10:54:02;;;;;;;1.42;1.30;;;8.40;99.90;;;;;;4860145;29;20041;-80
2024/02/06 10:56:32;;;;;;;0.10;0.10;;;8.40;99.90;;;;;;4861090;29;20042;-79
2024/02/06 10:59:01;;;;;;;2.40;0.95;;;8.30;99.90;;;;;;4860792;29;20045;-79
2024/02/06 11:01:36;;;;;;;0.38;0.38;;;8.30;99.90;;;;;;4860855;29;20049;-80
2024/02/06 11:04:10;;;;;;;0.68;0.68;;;8.30;99.90;;;;;;4859588;29;20052;-80
2024/02/06 11:07:05;;;;;;;0.28;0.28;;;8.30;99.90;;;;;;4860479;29;20391;-80
2024/02/06 11:09:34;;;;;;;0.10;0.10;;;8.40;99.90;;;;;;4864298;29;20041;-80
2024/02/06 11:12:01;;;;;;;0.20;0.20;;;8.40;99.90;;;;;;4859871;29;20034;-79
2024/02/06 11:14:29;;;;;;;2.20;0.63;;;8.50;99.90;;;;;;4858061;29;20050;-79
2024/02/06 11:16:59;;;;;;;0.30;0.30;;;8.50;99.90;;;;;;4860142;29;20386;-78
2024/02/06 11:19:26;;;;;;;0.57;0.57;;;8.60;99.90;;;;;;4860241;29;20049;-79
2024/02/06 11:22:03;;;;;;;10.80;0.68;;;8.60;99.90;;;;;;4860465;29;20493;-79
2024/02/06 11:24:30;;;;;;;1.60;1.50;;;8.80;97.90;;;;;;4859483;29;20045;-79
2024/02/06 11:26:57;;;;;;;6.45;2.58;;;8.90;76.90;;;;;;4857711;29;20415;-79
2024/02/06 11:29:24;;;;;;;1.15;1.05;;;9.00;52.90;;;;;;4859377;29;20056;-79
2024/02/06 11:31:51;;;;;;;1.83;0.70;;;9.10;35.00;;;;;;4860202;29;20044;-80
2024/02/06 11:34:22;;;;;;;0.52;0.52;;;9.10;31.90;;;;;;4860584;29;20418;-81
2024/02/06 11:36:48;;;;;;;1.10;1.05;;;9.20;14.50;;;;;;4859600;29;20038;-81
2024/02/06 11:39:17;;;;;;;0.40;0.40;;;9.20;6.30;;;;;;4861002;29;20041;-81
2024/02/06 11:41:44;;;;;;;0.90;0.55;;;9.30;6.80;;;;;;4860558;29;20037;-80
2024/02/06 11:44:12;;;;;;;6.60;2.05;;;9.40;1.00;;;;;;4860009;29;20057;-81
2024/02/06 11:46:45;;;;;;;0.60;0.60;;;9.40;1.00;;;;;;4862103;29;20030;-81
2024/02/06 11:49:13;;;;;;;1.00;0.40;;;9.40;1.00;;;;;;4863603;29;20033;-82
2024/02/06 11:51:40;;;;;;;0.45;0.43;;;9.50;1.00;;;;;;4864481;29;20033;-80
2024/02/06 11:54:12;;;;;;;1.75;0.47;;;9.60;1.00;;;;;;4863595;29;20037;-81
2024/02/06 11:56:40;;;;;;;1.38;0.77;;;9.70;1.00;;;;;;4848324;29;20044;-81
2024/02/06 11:59:11;;;;;;;4.85;0.63;;;9.70;1.00;;;;;;4863272;29;20037;-82
2024/02/06 12:01:38;;;;;;;5.93;1.48;;;9.70;1.00;;;;;;4864552;29;20045;-82
2024/02/06 12:04:05;;;;;;;0.43;0.43;;;9.80;1.00;;;;;;4862732;29;20068;-81
2024/02/06 12:06:32;;;;;;;2.10;0.68;;;9.70;1.00;;;;;;4864003;29;20050;-81
2024/02/06 12:09:08;;;;;;;1.10;1.00;;;9.70;1.00;;;;;;4859166;29;20041;-82
2024/02/06 12:11:46;;;;;;;0.20;0.20;;;9.60;1.00;;;;;;4858699;29;20379;-82
2024/02/06 12:14:14;;;;;;;0.20;0.20;;;9.60;1.00;;;;;;4856376;29;20056;-81
2024/02/06 12:16:42;;;;;;;5.38;1.17;;;9.70;1.00;;;;;;4860024;29;20038;-81
2024/02/06 12:19:09;;;;;;;0.57;0.57;;;9.70;1.00;;;;;;4858813;29;20658;-82
2024/02/06 12:21:35;;;;;;;1.33;0.50;;;9.70;1.00;;;;;;4860081;29;20048;-81
2024/02/06 12:24:03;;;;;;;2.95;1.38;;;9.80;1.00;;;;;;4859346;29;20033;-81
2024/02/06 12:26:31;;;;;;;1.05;1.05;;;9.80;1.00;;;;;;4859916;29;20042;-81
2024/02/06 12:29:07;;;;;;;3.65;0.50;;;9.90;1.00;;;;;;4859064;29;20056;-80
2024/02/06 12:31:37;;;;;;;0.10;0.10;;;9.90;1.00;;;;;;4858591;29;20029;-82
2024/02/06 12:34:07;;;;;;;0.88;0.52;;;9.90;1.00;;;;;;4858192;29;20046;-81
2024/02/06 12:36:37;;;;;;;0.20;0.20;;;9.80;1.00;;;;;;4860144;29;20030;-83
2024/02/06 12:39:12;;;;;;;0.63;0.52;;;9.80;1.00;;;;;;4858589;29;20399;-82
2024/02/06 12:41:39;;;;;;;4.22;0.52;;;9.80;1.00;;;;;;4860109;29;20034;-82
2024/02/06 12:44:05;;;;;;;0.63;0.52;;;9.80;1.00;;;;;;4858996;29;20037;-80
2024/02/06 12:46:31;;;;;;;36.13;3.17;;;9.80;1.00;;;;;;4859645;29;20029;-80
2024/02/06 12:48:58;;;;;;;0.28;0.28;;;9.90;1.00;;;;;;4859091;29;20038;-81
2024/02/06 12:51:24;;;;;;;0.80;0.40;;;9.80;1.00;;;;;;4859709;29;20033;-81
2024/02/06 12:53:51;;;;;;;0.32;0.32;;;9.80;1.00;;;;;;4844521;29;20034;-80
2024/02/06 12:56:17;;;;;;;4.15;0.70;;;9.70;1.00;;;;;;4863353;29;20399;-81
2024/02/06 12:58:45;;;;;;;1.00;0.63;;;9.70;1.00;;;;;;4863288;29;20033;-81
2024/02/06 13:01:11;;;;;;;0.63;0.55;;;9.70;1.00;;;;;;4862862;29;20351;-81
2024/02/06 13:03:38;;;;;;;1.00;0.90;;;9.80;1.00;;;;;;4861907;29;20048;-80
2024/02/06 13:06:05;;;;;;;2.83;1.40;;;9.80;1.00;;;;;;4862316;29;20053;-80
2024/02/06 13:08:42;;;;;;;1.10;0.98;;;9.80;1.00;;;;;;4864835;29;20041;-80
2024/02/06 13:11:12;;;;;;;3.03;2.38;;;9.80;1.00;;;;;;4844730;29;20033;-79
2024/02/06 13:13:39;;;;;;;0.80;0.80;;;9.80;1.00;;;;;;4864691;29;20034;-81
2024/02/06 13:16:06;;;;;;;1.42;1.27;;;9.80;1.00;;;;;;4862463;29;20041;-80
2024/02/06 13:18:36;;;;;;;0.65;0.65;;;9.90;1.00;;;;;;4862920;29;20033;-79
2024/02/06 13:21:07;;;;;;;0.45;0.45;;;9.90;1.00;;;;;;4859833;29;20462;-80
2024/02/06 13:23:36;;;;;;;0.55;0.55;;;9.80;1.00;;;;;;4862837;29;20037;-80
2024/02/06 13:26:03;;;;;;;0.20;0.20;;;9.90;1.00;;;;;;4862024;29;20049;-81
2024/02/06 13:28:29;;;;;;;0.77;0.77;;;9.90;1.00;;;;;;4852029;29;20038;-80
2024/02/06 13:30:57;;;;;;;1.48;1.38;;;9.90;1.00;;;;;;4863349;29;20406;-80
2024/02/06 13:33:24;;;;;;;1.13;0.70;;;9.90;1.00;;;;;;4862608;29;20029;-81
2024/02/06 13:35:50;;;;;;;1.85;0.73;;;9.90;1.00;;;;;;4862759;29;20049;-81
2024/02/06 13:38:16;;;;;;;0.52;0.40;;;9.90;1.00;;;;;;4862517;29;20037;-81
2024/02/06 13:40:42;;;;;;;0.90;0.65;;;9.80;1.00;;;;;;4862840;29;20364;-80
2024/02/06 13:43:08;;;;;;;0.57;0.57;;;9.90;1.00;;;;;;4861929;29;20034;-80
2024/02/06 13:45:34;;;;;;;0.77;0.73;;;9.90;1.00;;;;;;4845822;29;20046;-80
2024/02/06 13:48:01;;;;;;;0.45;0.45;;;9.90;1.00;;;;;;4864182;29;20038;-81
2024/02/06 13:50:27;;;;;;;0.20;0.20;;;9.90;1.00;;;;;;4866207;29;20046;-82
2024/02/06 13:52:53;;;;;;;4.60;1.27;;;9.90;1.00;;;;;;4862730;29;20034;-80
2024/02/06 13:55:21;;;;;;;1.23;1.02;;;9.90;1.00;;;;;;4860974;29;20045;-81
2024/02/06 13:57:47;;;;;;;0.22;0.22;;;9.90;1.00;;;;;;4860794;29;20052;-81
2024/02/06 14:00:13;;;;;;;0.90;0.45;;;9.90;1.00;;;;;;4860494;29;20050;-80
2024/02/06 14:02:40;;;;;;;0.15;0.15;;;9.80;1.00;;;;;;4862256;29;20467;-79
2024/02/06 14:05:07;;;;;;;0.93;0.77;;;9.90;1.00;;;;;;4858355;29;20049;-79
2024/02/06 14:07:33;;;;;;;0.77;0.77;;;9.90;1.00;;;;;;4861437;29;20053;-80
2024/02/06 14:10:00;;;;;;;0.30;0.30;;;9.90;1.00;;;;;;4860182;29;20061;-79
2024/02/06 14:12:26;;;;;;;0.32;0.32;;;9.90;1.00;;;;;;4860427;29;20515;-80
2024/02/06 14:14:52;;;;;;;0.35;0.35;;;9.80;1.00;;;;;;4861625;29;20041;-80
2024/02/06 14:17:19;;;;;;;0.82;0.82;;;9.80;1.00;;;;;;4837949;29;20550;-79
2024/02/06 14:19:46;;;;;;;0.35;0.32;;;9.90;1.00;;;;;;4860746;29;20042;-80
2024/02/06 14:22:12;;;;;;;0.95;0.88;;;9.90;1.00;;;;;;4860159;29;20038;-80
2024/02/06 14:24:38;;;;;;;0.60;0.60;;;9.90;1.00;;;;;;4860951;29;20048;-80
2024/02/06 14:27:04;;;;;;;1.52;0.45;;;9.90;1.00;;;;;;4860087;29;20121;-79
2024/02/06 14:29:31;;;;;;;0.63;0.63;;;9.90;1.00;;;;;;4860690;29;20041;-79
2024/02/06 14:31:57;;;;;;;0.38;0.38;;;9.90;1.00;;;;;;4860140;29;20066;-79
2024/02/06 14:34:23;;;;;;;0.45;0.45;;;9.80;1.00;;;;;;4860311;29;20037;-79
2024/02/06 14:36:50;;;;;;;1.08;0.93;;;9.80;1.00;;;;;;4859381;29;20490;-79
2024/02/06 14:39:16;;;;;;;1.23;0.45;;;9.80;1.00;;;;;;4859186;29;20403;-79
2024/02/06 14:41:42;;;;;;;1.77;0.93;;;9.80;1.00;;;;;;4860228;29;20502;-79
2024/02/06 14:44:08;;;;;;;0.25;0.25;;;9.90;1.00;;;;;;4859330;29;20038;-79
2024/02/06 14:46:36;;;;;;;0.80;0.80;;;9.90;1.00;;;;;;4860036;29;20049;-78
2024/02/06 14:49:02;;;;;;;0.10;0.10;;;9.90;1.00;;;;;;4859953;29;20399;-79
2024/02/06 14:51:28;;;;;;;1.20;1.20;;;9.80;1.00;;;;;;4860261;29;20041;-79
2024/02/06 14:53:55;;;;;;;2.28;0.50;;;9.90;1.00;;;;;;4859290;29;20046;-80
2024/02/06 14:56:21;;;;;;;1.75;0.75;;;9.90;1.00;;;;;;4860042;29;20112;-80
2024/02/06 14:58:47;;;;;;;2.05;1.25;;;10.00;1.00;;;;;;4860280;29;20104;-78
2024/02/06 15:01:13;;;;;;;0.73;0.63;;;10.00;1.00;;;;;;4859335;29;20040;-78
2024/02/06 15:03:42;;;;;;;3.13;1.27;;;10.00;1.00;;;;;;4860527;29;20037;-79
2024/02/06 15:06:08;;;;;;;0.82;0.50;;;10.10;1.00;;;;;;4858096;29;20419;-79
2024/02/06 15:08:34;;;;;;;0.70;0.32;;;10.10;1.00;;;;;;4860789;29;20050;-80
2024/02/06 15:11:00;;;;;;;12.40;3.25;;;10.10;1.00;;;;;;4860395;29;20037;-79
2024/02/06 15:13:26;;;;;;;1.08;1.05;;;10.20;1.00;;;;;;4859803;29;20040;-79
2024/02/06 15:15:54;;;;;;;1.13;1.05;;;10.20;1.00;;;;;;4859295;29;20041;-78
2024/02/06 15:18:20;;;;;;;0.88;0.88;;;10.20;1.00;;;;;;4857872;29;20026;-77
2024/02/06 15:20:46;;;;;;;0.50;0.50;;;10.10;1.00;;;;;;4843391;29;20041;-79
2024/02/06 15:23:13;;;;;;;0.35;0.35;;;10.10;1.00;;;;;;4858604;29;20033;-79
2024/02/06 15:25:39;;;;;;;0.20;0.20;;;10.10;1.00;;;;;;4843125;29;20503;-79
2024/02/06 15:28:07;;;;;;;9.13;1.55;;;10.10;1.00;;;;;;4859036;29;20486;-80
2024/02/06 15:30:33;;;;;;;1.10;0.55;;;10.10;1.00;;;;;;4859660;29;20041;-81
2024/02/06 15:33:00;;;;;;;2.67;1.08;;;10.10;1.00;;;;;;4860030;29;20048;-81
2024/02/06 15:35:29;;;;;;;0.30;0.30;;;10.10;1.00;;;;;;4858796;29;20052;-79
2024/02/06 15:37:56;;;;;;;0.65;0.65;;;10.10;1.00;;;;;;4859685;29;20403;-79
2024/02/06 15:40:22;;;;;;;0.82;0.82;;;10.10;1.00;;;;;;4855073;29;20057;-78
2024/02/06 15:42:49;;;;;;;0.10;0.10;;;10.10;1.00;;;;;;4859355;29;20034;-79
2024/02/06 15:45:15;;;;;;;2.72;0.60;;;10.10;1.00;;;;;;4858905;29;20482;-79
2024/02/06 15:47:42;;;;;;;1.10;0.82;;;10.00;1.00;;;;;;4859211;29;20472;-79
2024/02/06 15:50:09;;;;;;;0.77;0.77;;;10.00;1.00;;;;;;4859080;29;20034;-78
2024/02/06 15:52:35;;;;;;;0.10;0.10;;;10.00;1.00;;;;;;4860518;29;20060;-80
2024/02/06 15:55:01;;;;;;;1.95;1.00;;;10.00;1.00;;;;;;4857962;29;20041;-77
2024/02/06 15:57:27;;;;;;;0.45;0.45;;;9.90;1.00;;;;;;4859135;29;20053;-77
2024/02/06 15:59:53;;;;;;;0.65;0.47;;;9.90;1.00;;;;;;4859380;29;20423;-76
2024/02/06 16:02:20;;;;;;;0.90;0.75;;;9.90;1.00;;;;;;4858620;29;20041;-77
2024/02/06 16:04:46;;;;;;;0.68;0.52;;;9.90;1.00;;;;;;4859946;29;20045;-76
2024/02/06 16:07:12;;;;;;;0.22;0.22;;;9.80;1.00;;;;;;4866277;29;20053;-79
2024/02/06 16:09:38;;;;;;;1.05;0.63;;;9.80;1.00;;;;;;4860116;29;20050;-78
2024/02/06 16:12:05;;;;;;;0.40;0.40;;;9.80;1.00;;;;;;4858473;29;20045;-77
2024/02/06 16:14:31;;;;;;;0.15;0.15;;;9.80;1.00;;;;;;4859135;29;20100;-77
2024/02/06 16:16:58;;;;;;;1.45;1.00;;;9.80;1.00;;;;;;4858679;29;20037;-77
2024/02/06 16:19:25;;;;;;;0.90;0.90;;;9.80;1.00;;;;;;4858594;29;20420;-78
2024/02/06 16:21:52;;;;;;;1.42;1.33;;;9.70;1.00;;;;;;4859685;29;20494;-79
2024/02/06 16:24:18;;;;;;;0.10;0.10;;;9.70;1.00;;;;;;4865443;29;20057;-77
2024/02/06 16:26:44;;;;;;;1.08;0.88;;;9.70;1.00;;;;;;4859130;29;20395;-78
2024/02/06 16:29:11;;;;;;;0.20;0.20;;;9.60;1.00;;;;;;4858071;29;20494;-78
2024/02/06 16:31:38;;;;;;;0.77;0.60;;;9.70;1.00;;;;;;4863571;29;20038;-78
2024/02/06 16:34:05;;;;;;;0.10;0.10;;;9.70;1.00;;;;;;4860405;29;20045;-78
2024/02/06 16:36:31;;;;;;;0.20;0.20;;;9.60;1.00;;;;;;4859085;29;20049;-78
2024/02/06 16:38:59;;;;;;;1.98;1.65;;;9.60;1.00;;;;;;4859212;29;20045;-78
2024/02/06 16:41:34;;;;;;;1.50;1.00;;;9.60;1.00;;;;;;4858531;29;20049;-77
2024/02/06 16:44:02;;;;;;;1.00;0.68;;;9.60;1.00;;;;;;4857842;29;20048;-78
2024/02/06 16:46:28;;;;;;;1.42;0.98;;;9.60;1.00;;;;;;4858700;29;20045;-77
2024/02/06 16:48:55;;;;;;;0.20;0.20;;;9.50;1.00;;;;;;4859239;29;20033;-77
2024/02/06 16:51:21;;;;;;;4.57;1.60;;;9.60;1.00;;;;;;4858109;29;20042;-78
2024/02/06 16:53:47;;;;;;;0.38;0.38;;;9.60;1.00;;;;;;4859098;29;20443;-77
2024/02/06 16:56:14;;;;;;;1.20;1.10;;;9.50;1.00;;;;;;4858045;29;20049;-78
2024/02/06 16:58:40;;;;;;;0.30;0.30;;;9.50;1.00;;;;;;4859445;29;20054;-78
2024/02/06 17:01:09;;;;;;;0.88;0.88;;;9.50;1.00;;;;;;4858263;29;20347;-77
2024/02/06 17:03:36;;;;;;;0.22;0.22;;;9.50;1.00;;;;;;4859110;29;20033;-78
2024/02/06 17:06:02;;;;;;;0.20;0.20;;;9.50;1.00;;;;;;4857919;29;20050;-77
2024/02/06 17:08:28;;;;;;;0.20;0.20;;;9.40;1.00;;;;;;4858387;29;20443;-78